Time;durP1;ratioP1;P1;durP2;ratioP2;P2;SDS_P1;SDS_P2;PMS_P1;PMS_P2;Temp;Humidity;BMP_temperature;BMP_pressure;BME280_temperature;BME280_humidity;BME280_pressure;Samples;Min_cycle;Max_cycle;Signal;HPM_P1;HPM_P2
2021/01/14 00:02:01;;;;;;;14.00;6.70;;;6.60;72.60;;;;;;4995835;28;20041;-74
2021/01/14 00:04:27;;;;;;;15.63;7.13;;;6.50;72.90;;;;;;4995695;28;20057;-74
2021/01/14 00:06:53;;;;;;;14.23;6.40;;;6.30;74.10;;;;;;4995738;28;20022;-74
2021/01/14 00:09:19;;;;;;;15.37;5.87;;;6.40;74.10;;;;;;4995781;28;20080;-74
2021/01/14 00:11:45;;;;;;;12.90;6.80;;;6.40;73.70;;;;;;4994337;28;20030;-74
2021/01/14 00:14:11;;;;;;;14.70;5.77;;;6.40;74.40;;;;;;4996021;28;20399;-74
2021/01/14 00:16:37;;;;;;;12.73;5.43;;;6.40;74.30;;;;;;4995383;28;20035;-74
2021/01/14 00:19:04;;;;;;;11.17;5.43;;;6.50;73.60;;;;;;4995145;28;20073;-74
2021/01/14 00:21:29;;;;;;;14.60;5.83;;;6.50;73.30;;;;;;4977823;28;20038;-74
2021/01/14 00:23:55;;;;;;;12.50;5.30;;;6.50;73.90;;;;;;4994143;28;20092;-74
2021/01/14 00:26:21;;;;;;;12.43;6.00;;;6.50;73.90;;;;;;4995484;28;20133;-74
2021/01/14 00:28:47;;;;;;;11.80;6.47;;;6.50;74.10;;;;;;4995224;28;20391;-74
2021/01/14 00:31:12;;;;;;;11.83;6.30;;;6.60;74.20;;;;;;4993203;28;20451;-74
2021/01/14 00:33:38;;;;;;;19.07;7.67;;;6.70;73.90;;;;;;4995159;28;20053;-74
2021/01/14 00:36:04;;;;;;;12.50;6.80;;;6.60;74.10;;;;;;4994056;28;20117;-74
2021/01/14 00:38:29;;;;;;;20.00;8.93;;;6.60;74.60;;;;;;4995058;28;20077;-74
2021/01/14 00:40:55;;;;;;;15.53;10.43;;;6.50;75.20;;;;;;4994851;28;20072;-74
2021/01/14 00:43:20;;;;;;;16.90;10.43;;;6.60;75.40;;;;;;4994853;28;20077;-74
2021/01/14 00:45:48;;;;;;;16.23;10.03;;;6.50;75.80;;;;;;4995069;28;20035;-74
2021/01/14 00:48:13;;;;;;;18.67;10.87;;;6.50;76.00;;;;;;4994865;28;20030;-74
2021/01/14 00:50:39;;;;;;;20.50;11.67;;;6.40;77.10;;;;;;4993833;28;20387;-74
2021/01/14 00:53:05;;;;;;;21.47;12.30;;;6.50;76.90;;;;;;4994972;28;20034;-74
2021/01/14 00:55:30;;;;;;;19.80;12.60;;;6.60;76.60;;;;;;4994948;28;20485;-74
2021/01/14 00:57:56;;;;;;;20.13;11.33;;;6.60;76.50;;;;;;4994825;28;20026;-74
2021/01/14 01:00:23;;;;;;;22.03;12.23;;;6.50;76.90;;;;;;4993808;28;20484;-74
2021/01/14 01:02:50;;;;;;;18.93;11.47;;;6.40;77.60;;;;;;4994583;28;20066;-74
2021/01/14 01:05:16;;;;;;;24.70;12.47;;;6.40;78.20;;;;;;4993632;28;20030;-74
2021/01/14 01:07:59;;;;;;;18.53;11.07;;;6.40;78.20;;;;;;4993688;28;20353;-74
2021/01/14 01:10:25;;;;;;;18.80;10.90;;;6.30;78.60;;;;;;4993567;28;20026;-74
2021/01/14 01:12:55;;;;;;;16.27;11.70;;;6.30;79.00;;;;;;4993506;28;20030;-74
2021/01/14 01:15:20;;;;;;;18.70;12.63;;;6.20;79.70;;;;;;4993294;28;20113;-74
2021/01/14 01:17:46;;;;;;;19.97;12.67;;;6.10;80.00;;;;;;4977220;28;20113;-74
2021/01/14 01:20:12;;;;;;;18.73;13.00;;;6.20;80.00;;;;;;4993107;28;20042;-74
2021/01/14 01:22:38;;;;;;;22.07;12.73;;;6.20;79.90;;;;;;4994130;28;20476;-74
2021/01/14 01:25:04;;;;;;;21.83;14.03;;;6.20;79.90;;;;;;4993438;28;20053;-74
2021/01/14 01:27:29;;;;;;;19.83;14.57;;;6.10;80.70;;;;;;4994500;28;20041;-74
2021/01/14 01:29:55;;;;;;;18.77;13.40;;;6.10;80.70;;;;;;4992937;28;20030;-74
2021/01/14 01:32:21;;;;;;;22.47;14.27;;;6.10;81.00;;;;;;4993264;28;20035;-74
2021/01/14 01:34:46;;;;;;;21.80;14.00;;;6.10;81.10;;;;;;4993164;28;20153;-75
2021/01/14 01:37:12;;;;;;;20.80;14.07;;;6.20;80.90;;;;;;4976816;28;20361;-74
2021/01/14 01:39:37;;;;;;;24.60;14.93;;;6.20;80.90;;;;;;4977027;28;20030;-74
2021/01/14 01:42:04;;;;;;;23.23;14.67;;;6.10;81.30;;;;;;4992878;28;20030;-74
2021/01/14 01:44:30;;;;;;;26.43;15.00;;;5.90;82.00;;;;;;4993090;28;20022;-74
2021/01/14 01:46:57;;;;;;;24.90;15.00;;;6.00;82.30;;;;;;4994210;28;20060;-74
2021/01/14 01:49:22;;;;;;;20.00;15.23;;;6.00;82.50;;;;;;4993392;28;20053;-74
2021/01/14 01:51:48;;;;;;;19.83;13.53;;;6.00;82.70;;;;;;4992902;28;20034;-74
2021/01/14 01:54:14;;;;;;;26.70;14.63;;;6.00;82.90;;;;;;4992394;28;20504;-74
2021/01/14 01:56:39;;;;;;;20.33;13.93;;;5.90;83.30;;;;;;4993183;28;20037;-75
2021/01/14 01:59:06;;;;;;;23.97;14.37;;;6.00;83.10;;;;;;4976648;28;20054;-74
2021/01/14 02:01:33;;;;;;;28.57;15.33;;;6.00;83.00;;;;;;4994405;28;20027;-74
2021/01/14 02:03:58;;;;;;;19.83;14.23;;;6.00;83.00;;;;;;4992714;28;20057;-74
2021/01/14 02:06:24;;;;;;;26.40;16.50;;;5.90;83.70;;;;;;4993129;28;20026;-74
2021/01/14 02:08:59;;;;;;;24.87;15.80;;;5.80;83.90;;;;;;4994208;28;20034;-74
2021/01/14 02:11:27;;;;;;;26.23;16.97;;;5.80;84.00;;;;;;4995385;28;20050;-75
2021/01/14 02:14:14;;;;;;;26.33;16.90;;;5.80;84.00;;;;;;4998077;28;20488;-74
2021/01/14 02:16:42;;;;;;;23.57;15.80;;;5.90;84.00;;;;;;4996697;28;20055;-74
2021/01/14 02:19:13;;;;;;;25.83;16.23;;;5.70;84.60;;;;;;4996473;28;20036;-74
2021/01/14 02:21:38;;;;;;;19.40;15.13;;;5.60;85.50;;;;;;4997576;28;20062;-74
2021/01/14 02:24:19;;;;;;;21.73;14.77;;;5.70;85.60;;;;;;4996263;28;20077;-74
2021/01/14 02:26:44;;;;;;;23.80;16.27;;;5.70;85.00;;;;;;4996536;28;20037;-74
2021/01/14 02:29:10;;;;;;;25.03;16.93;;;5.80;85.00;;;;;;4996394;28;20431;-74
2021/01/14 02:31:35;;;;;;;29.27;17.40;;;5.80;84.30;;;;;;4997285;28;20038;-75
2021/01/14 02:34:01;;;;;;;24.53;18.67;;;6.00;84.20;;;;;;4997322;28;20073;-74
2021/01/14 02:36:27;;;;;;;25.17;17.60;;;6.00;83.60;;;;;;4997269;28;20031;-74
2021/01/14 02:38:53;;;;;;;24.97;18.73;;;6.00;83.70;;;;;;4996273;28;20101;-74
2021/01/14 02:41:19;;;;;;;27.60;20.13;;;6.10;83.30;;;;;;4996134;28;20097;-74
2021/01/14 02:43:45;;;;;;;23.50;18.47;;;6.10;83.00;;;;;;4996249;28;20031;-74
2021/01/14 02:46:10;;;;;;;29.77;19.93;;;6.10;83.50;;;;;;4996105;28;20069;-74
2021/01/14 02:48:50;;;;;;;29.60;19.90;;;6.20;82.70;;;;;;4997074;28;20526;-74
2021/01/14 02:51:19;;;;;;;31.87;19.97;;;6.20;82.70;;;;;;4995952;28;20038;-74
2021/01/14 02:53:46;;;;;;;30.10;19.10;;;6.10;83.40;;;;;;4995938;28;20050;-74
2021/01/14 02:56:11;;;;;;;30.97;21.40;;;6.10;83.20;;;;;;4995929;28;20050;-74
2021/01/14 02:58:37;;;;;;;27.17;18.80;;;6.20;83.20;;;;;;4995788;28;20030;-74
2021/01/14 03:01:03;;;;;;;28.37;21.83;;;6.00;83.60;;;;;;4997044;28;20026;-74
2021/01/14 03:03:28;;;;;;;27.17;21.30;;;6.10;83.80;;;;;;4996885;28;20121;-74
2021/01/14 03:05:54;;;;;;;25.80;20.33;;;6.10;83.40;;;;;;4996958;28;20444;-74
2021/01/14 03:08:19;;;;;;;26.17;21.83;;;6.20;83.20;;;;;;4996731;28;20460;-74
2021/01/14 03:10:45;;;;;;;30.50;20.43;;;6.20;82.90;;;;;;4995518;28;20033;-74
2021/01/14 03:13:11;;;;;;;28.77;20.70;;;6.30;82.90;;;;;;4995504;28;20084;-74
2021/01/14 03:15:36;;;;;;;33.00;22.10;;;6.40;82.20;;;;;;4995449;28;20361;-74
2021/01/14 03:18:02;;;;;;;31.10;21.27;;;6.50;81.90;;;;;;4996570;28;20030;-74
2021/01/14 03:20:28;;;;;;;34.17;22.00;;;6.40;82.00;;;;;;4996794;28;20373;-74
2021/01/14 03:22:53;;;;;;;27.83;21.47;;;6.40;82.20;;;;;;4995612;28;20040;-74
2021/01/14 03:25:19;;;;;;;29.23;21.67;;;6.40;82.00;;;;;;4979012;28;20117;-74
2021/01/14 03:27:45;;;;;;;32.43;22.10;;;6.40;82.10;;;;;;4996382;28;20045;-74
2021/01/14 03:30:12;;;;;;;31.00;23.17;;;6.30;82.50;;;;;;4979009;28;20033;-74
2021/01/14 03:32:38;;;;;;;31.33;22.97;;;6.30;82.70;;;;;;4995163;28;20077;-74
2021/01/14 03:35:05;;;;;;;31.23;21.93;;;6.30;83.10;;;;;;4995136;28;20037;-74
2021/01/14 03:37:30;;;;;;;33.40;23.50;;;6.20;83.00;;;;;;4995092;28;20026;-75
2021/01/14 03:39:56;;;;;;;36.93;25.87;;;6.40;82.30;;;;;;4996359;28;20031;-75
2021/01/14 03:42:22;;;;;;;33.13;23.77;;;6.40;82.20;;;;;;4996210;28;20049;-74
2021/01/14 03:44:47;;;;;;;32.43;23.87;;;6.30;82.70;;;;;;4978937;28;20033;-74
2021/01/14 03:47:13;;;;;;;33.77;24.23;;;6.30;83.00;;;;;;4994826;28;20022;-75
2021/01/14 03:49:39;;;;;;;30.67;22.33;;;6.20;83.00;;;;;;4996166;28;20169;-74
2021/01/14 03:52:05;;;;;;;32.93;23.53;;;6.10;83.80;;;;;;4996095;28;20061;-74
2021/01/14 03:54:31;;;;;;;30.93;24.30;;;6.20;83.40;;;;;;4978572;28;20490;-74
2021/01/14 03:56:56;;;;;;;30.73;22.70;;;6.30;83.20;;;;;;4995895;28;20065;-74
2021/01/14 03:59:22;;;;;;;33.63;23.73;;;6.20;83.10;;;;;;4978591;28;20034;-74
2021/01/14 04:01:47;;;;;;;36.83;25.00;;;6.30;83.30;;;;;;4995768;28;20092;-74
2021/01/14 04:04:13;;;;;;;28.10;22.97;;;6.30;82.80;;;;;;4995797;28;20460;-74
2021/01/14 04:06:39;;;;;;;36.67;25.40;;;6.20;83.10;;;;;;4995790;28;20061;-74
2021/01/14 04:09:05;;;;;;;41.93;28.67;;;6.40;82.80;;;;;;4995731;28;20034;-74
2021/01/14 04:11:31;;;;;;;30.77;26.97;;;6.30;83.00;;;;;;4995534;28;20088;-74
2021/01/14 04:13:56;;;;;;;29.10;23.23;;;6.30;83.10;;;;;;4994220;28;20026;-74
2021/01/14 04:16:22;;;;;;;28.83;23.77;;;6.20;82.80;;;;;;4995402;28;20104;-74
2021/01/14 04:18:48;;;;;;;27.13;23.87;;;6.30;82.80;;;;;;4995558;28;20361;-74
2021/01/14 04:21:16;;;;;;;27.87;24.77;;;6.40;82.20;;;;;;4994052;28;20038;-74
2021/01/14 04:23:45;;;;;;;32.03;24.73;;;6.50;82.00;;;;;;4995481;28;20031;-74
2021/01/14 04:26:11;;;;;;;26.20;22.47;;;6.60;81.80;;;;;;4995538;28;20031;-74
2021/01/14 04:28:38;;;;;;;14.43;9.73;;;6.60;81.40;;;;;;4977916;28;20079;-74
2021/01/14 04:31:04;;;;;;;13.90;4.20;;;6.70;78.90;;;;;;4994125;28;20049;-74
2021/01/14 04:33:29;;;;;;;12.33;3.13;;;6.40;76.90;;;;;;4995143;28;20460;-74
2021/01/14 04:35:56;;;;;;;14.00;2.90;;;6.30;76.90;;;;;;4994067;28;20034;-74
2021/01/14 04:38:22;;;;;;;10.50;2.73;;;6.10;77.00;;;;;;4993783;28;20452;-74
2021/01/14 04:40:59;;;;;;;10.30;2.70;;;6.00;77.70;;;;;;4993794;28;20026;-74
2021/01/14 04:43:25;;;;;;;9.63;2.53;;;5.80;77.20;;;;;;4993894;28;20383;-75
2021/01/14 04:45:55;;;;;;;10.27;2.83;;;5.70;78.20;;;;;;4995131;28;20078;-74
2021/01/14 04:48:22;;;;;;;8.07;2.17;;;5.50;78.50;;;;;;4993834;28;20031;-74
2021/01/14 04:50:48;;;;;;;8.80;2.40;;;5.60;78.80;;;;;;4995098;28;20089;-74
2021/01/14 04:53:14;;;;;;;9.50;2.40;;;5.50;79.10;;;;;;4993579;28;20494;-74
2021/01/14 04:55:45;;;;;;;9.77;3.27;;;5.60;78.60;;;;;;4994734;28;20030;-74
2021/01/14 04:58:15;;;;;;;9.00;2.90;;;5.60;78.20;;;;;;4977413;28;20034;-74
2021/01/14 05:00:45;;;;;;;9.82;3.47;;;5.50;78.50;;;;;;4977731;28;20031;-74
2021/01/14 05:03:12;;;;;;;13.55;4.10;;;5.50;78.80;;;;;;4993811;28;20085;-74
2021/01/14 05:05:38;;;;;;;8.30;3.90;;;5.60;78.30;;;;;;4977866;28;20062;-74
2021/01/14 05:08:07;;;;;;;5.87;3.27;;;5.60;78.20;;;;;;4977209;28;20080;-74
2021/01/14 05:10:34;;;;;;;12.00;4.53;;;5.60;77.90;;;;;;4993555;28;20026;-74
2021/01/14 05:13:00;;;;;;;11.27;4.63;;;5.60;77.70;;;;;;4994631;28;20026;-74
2021/01/14 05:15:28;;;;;;;10.00;4.60;;;5.50;79.00;;;;;;4995100;28;20129;-74
2021/01/14 05:17:58;;;;;;;13.97;5.23;;;5.40;78.50;;;;;;4977577;28;20034;-74
2021/01/14 05:20:24;;;;;;;17.70;6.63;;;5.40;78.40;;;;;;4976886;28;20076;-76
2021/01/14 05:22:56;;;;;;;12.93;6.33;;;5.40;78.10;;;;;;4993226;28;20054;-76
2021/01/14 05:25:22;;;;;;;14.60;7.43;;;5.40;78.50;;;;;;4994558;28;20164;-76
2021/01/14 05:27:48;;;;;;;10.37;5.77;;;5.50;78.10;;;;;;4993217;28;20019;-76
2021/01/14 05:30:14;;;;;;;14.43;7.07;;;5.60;77.60;;;;;;4994340;28;20515;-76
2021/01/14 05:32:41;;;;;;;13.93;6.70;;;5.50;77.80;;;;;;4994040;28;20400;-76
2021/01/14 05:35:09;;;;;;;12.93;7.20;;;5.30;78.60;;;;;;4992945;28;20029;-76
2021/01/14 05:37:47;;;;;;;18.63;8.00;;;5.40;79.00;;;;;;4994047;28;20498;-76
2021/01/14 05:40:21;;;;;;;12.63;7.73;;;5.40;78.30;;;;;;4994372;28;20023;-76
2021/01/14 05:43:06;;;;;;;13.73;8.60;;;5.40;78.50;;;;;;4993246;28;20018;-75
2021/01/14 05:45:35;;;;;;;11.67;7.50;;;5.40;78.60;;;;;;4992355;28;20492;-76
2021/01/14 05:48:11;;;;;;;9.53;7.30;;;5.20;78.20;;;;;;4991536;28;20076;-76
2021/01/14 05:50:42;;;;;;;11.67;5.83;;;5.00;78.90;;;;;;4976683;28;20031;-76
2021/01/14 05:53:15;;;;;;;10.23;6.43;;;5.00;78.60;;;;;;4993303;28;20507;-76
2021/01/14 05:55:43;;;;;;;12.23;6.27;;;4.90;78.30;;;;;;4977011;28;20029;-76
2021/01/14 05:58:08;;;;;;;8.00;5.60;;;4.70;78.50;;;;;;4992785;28;20034;-76
2021/01/14 06:00:37;;;;;;;9.27;6.03;;;4.60;78.30;;;;;;4992752;28;20030;-76
2021/01/14 06:03:26;;;;;;;7.10;5.87;;;4.60;78.50;;;;;;4992806;28;20026;-76
2021/01/14 06:05:53;;;;;;;9.17;6.00;;;4.50;78.40;;;;;;4994021;28;20375;-76
2021/01/14 06:08:21;;;;;;;9.17;5.97;;;4.60;78.40;;;;;;4992797;28;20077;-76
2021/01/14 06:10:47;;;;;;;9.23;5.57;;;4.50;78.00;;;;;;4976585;28;20431;-76
2021/01/14 06:13:12;;;;;;;8.87;5.60;;;4.40;78.30;;;;;;4994157;28;20030;-76
2021/01/14 06:15:38;;;;;;;7.30;5.63;;;4.30;78.80;;;;;;4992702;28;20114;-75
2021/01/14 06:18:08;;;;;;;7.60;5.37;;;4.40;78.90;;;;;;4993880;28;20092;-76
2021/01/14 06:20:35;;;;;;;13.33;5.53;;;4.40;78.50;;;;;;4992622;28;20384;-76
2021/01/14 06:23:00;;;;;;;8.10;4.67;;;4.40;78.60;;;;;;4976419;28;20137;-76
2021/01/14 06:25:26;;;;;;;10.13;5.57;;;4.40;78.20;;;;;;4960481;28;20539;-76
2021/01/14 06:27:55;;;;;;;8.47;4.87;;;4.40;78.70;;;;;;4993875;28;20077;-76
2021/01/14 06:30:21;;;;;;;7.10;5.03;;;4.40;78.10;;;;;;4992774;28;20085;-76
2021/01/14 06:32:48;;;;;;;7.77;5.13;;;4.40;78.10;;;;;;4992606;28;20022;-76
2021/01/14 06:35:15;;;;;;;8.07;4.90;;;4.40;77.90;;;;;;4976761;28;20022;-76
2021/01/14 06:37:41;;;;;;;8.33;5.20;;;4.40;77.90;;;;;;4976589;28;20027;-76
2021/01/14 06:40:07;;;;;;;9.17;5.43;;;4.30;78.30;;;;;;4976297;28;20426;-76
2021/01/14 06:42:36;;;;;;;9.43;5.80;;;4.30;78.50;;;;;;4992395;28;20030;-76
2021/01/14 06:45:09;;;;;;;9.90;5.63;;;4.40;78.20;;;;;;4993615;28;20050;-76
2021/01/14 06:47:35;;;;;;;10.07;6.07;;;4.40;78.30;;;;;;4992406;28;20026;-76
2021/01/14 06:50:18;;;;;;;7.93;6.00;;;4.50;78.30;;;;;;4993818;28;20069;-76
2021/01/14 06:52:53;;;;;;;12.13;5.63;;;4.50;77.40;;;;;;4992773;28;20499;-76
2021/01/14 06:55:25;;;;;;;11.23;5.63;;;4.50;77.20;;;;;;4993750;28;20130;-76
2021/01/14 06:58:13;;;;;;;8.63;5.10;;;4.50;77.60;;;;;;4994938;28;20027;-76
2021/01/14 07:00:40;;;;;;;11.33;5.10;;;4.30;78.00;;;;;;4986705;28;20065;-75
2021/01/14 07:03:24;;;;;;;8.30;4.70;;;4.30;78.10;;;;;;4992922;28;20085;-75
2021/01/14 07:05:53;;;;;;;12.57;6.03;;;4.10;79.00;;;;;;4995552;28;20129;-75
2021/01/14 07:08:37;;;;;;;9.07;5.60;;;4.20;79.10;;;;;;4996720;28;20427;-75
2021/01/14 07:11:17;;;;;;;9.50;5.07;;;4.30;78.80;;;;;;5011799;28;20022;-76
2021/01/14 07:13:47;;;;;;;10.60;5.33;;;4.10;79.00;;;;;;5011793;28;20026;-76
2021/01/14 07:16:17;;;;;;;10.50;5.30;;;4.20;79.10;;;;;;4995226;28;20030;-77
2021/01/14 07:18:44;;;;;;;10.20;5.37;;;4.20;79.50;;;;;;4986245;28;20476;-76
2021/01/14 07:21:57;;;;;;;8.30;5.73;;;4.20;78.60;;;;;;4993188;28;20403;-76
2021/01/14 07:24:26;;;;;;;8.70;5.37;;;4.00;79.30;;;;;;4982301;28;20361;-76
2021/01/14 07:26:59;;;;;;;11.50;5.50;;;4.00;79.30;;;;;;4996090;28;20053;-76
2021/01/14 07:29:24;;;;;;;10.40;5.80;;;4.10;79.30;;;;;;5011287;28;20018;-75
2021/01/14 07:31:59;;;;;;;11.13;5.40;;;4.30;78.70;;;;;;4995096;28;20372;-76
2021/01/14 07:34:32;;;;;;;9.93;7.00;;;4.30;78.00;;;;;;4996201;28;20376;-76
2021/01/14 07:36:57;;;;;;;13.17;6.80;;;4.40;77.90;;;;;;4996061;28;20030;-76
2021/01/14 07:39:52;;;;;;;10.50;6.30;;;4.30;77.80;;;;;;4996175;28;20038;-76
2021/01/14 07:42:25;;;;;;;10.50;6.23;;;4.40;78.00;;;;;;4996229;28;20022;-76
2021/01/14 07:44:55;;;;;;;14.97;6.47;;;4.40;77.60;;;;;;4994388;28;20030;-76
2021/01/14 07:47:25;;;;;;;12.20;6.73;;;4.30;77.40;;;;;;5010556;28;20038;-76
2021/01/14 07:49:50;;;;;;;17.73;8.17;;;4.30;78.00;;;;;;4994737;28;20034;-76
2021/01/14 07:52:32;;;;;;;15.30;8.30;;;4.50;77.40;;;;;;4974103;28;20412;-76
2021/01/14 07:55:07;;;;;;;12.07;7.30;;;4.70;76.60;;;;;;4987734;28;20069;-75
2021/01/14 07:57:41;;;;;;;12.87;7.83;;;4.60;76.80;;;;;;4996020;28;20092;-76
2021/01/14 08:00:10;;;;;;;15.40;7.97;;;4.50;77.00;;;;;;5010851;28;20426;-76
2021/01/14 08:03:13;;;;;;;13.80;7.33;;;4.50;77.30;;;;;;4995683;28;20038;-76
2021/01/14 08:05:40;;;;;;;14.43;7.50;;;4.30;77.20;;;;;;4995826;28;20093;-76
2021/01/14 08:08:24;;;;;;;14.70;7.23;;;4.30;77.80;;;;;;4995183;28;20027;-76
2021/01/14 08:11:17;;;;;;;13.83;7.13;;;4.40;77.30;;;;;;4995567;28;20026;-76
2021/01/14 08:14:06;;;;;;;15.47;7.07;;;4.50;77.30;;;;;;4977594;28;20041;-76
2021/01/14 08:16:33;;;;;;;16.17;7.67;;;4.50;76.90;;;;;;4976106;28;20041;-76
2021/01/14 08:19:11;;;;;;;18.43;7.80;;;4.70;76.40;;;;;;4990993;28;20022;-76
2021/01/14 08:21:37;;;;;;;10.57;6.17;;;4.50;76.90;;;;;;4974601;28;20070;-75
2021/01/14 08:24:03;;;;;;;14.17;6.63;;;4.50;76.90;;;;;;4990534;28;20494;-76
2021/01/14 08:26:28;;;;;;;21.00;6.93;;;4.50;76.90;;;;;;4990452;28;20114;-76
2021/01/14 08:29:01;;;;;;;13.03;6.40;;;4.50;76.50;;;;;;4975674;28;20357;-75
2021/01/14 08:31:35;;;;;;;18.13;6.70;;;4.60;76.50;;;;;;4975627;28;20035;-76
2021/01/14 08:34:01;;;;;;;17.40;6.43;;;4.60;76.40;;;;;;4975721;28;20115;-75
2021/01/14 08:36:26;;;;;;;12.53;5.70;;;4.60;76.60;;;;;;5005387;28;20113;-76
2021/01/14 08:38:52;;;;;;;15.07;6.37;;;4.70;76.40;;;;;;4977563;28;20030;-75
2021/01/14 08:41:29;;;;;;;15.47;6.43;;;4.60;76.20;;;;;;4977694;28;20061;-76
2021/01/14 08:44:00;;;;;;;14.17;6.40;;;4.50;76.80;;;;;;4993719;28;20061;-76
2021/01/14 08:46:41;;;;;;;17.45;7.00;;;4.30;77.60;;;;;;4993205;28;20034;-75
2021/01/14 08:49:10;;;;;;;15.02;5.68;;;4.40;77.40;;;;;;4995054;28;20033;-76
2021/01/14 08:51:38;;;;;;;14.70;4.73;;;4.50;77.30;;;;;;5009983;28;20030;-76
2021/01/14 08:54:07;;;;;;;12.67;4.60;;;4.50;76.90;;;;;;4993913;28;20027;-76
2021/01/14 08:56:33;;;;;;;13.00;4.30;;;4.50;77.00;;;;;;5010007;28;20026;-76
2021/01/14 08:59:04;;;;;;;15.00;4.20;;;4.60;76.60;;;;;;4993904;28;20023;-76
2021/01/14 09:01:32;;;;;;;;;;;4.50;76.70;;;;;;4994100;28;20058;-76
2021/01/14 09:03:58;;;;;;;14.07;4.60;;;4.40;77.10;;;;;;4994674;28;20294;-76
2021/01/14 09:06:37;;;;;;;14.60;4.37;;;4.40;77.30;;;;;;4994665;28;20042;-76
2021/01/14 09:09:07;;;;;;;14.77;5.13;;;4.50;77.20;;;;;;5009855;28;20022;-75
2021/01/14 09:11:33;;;;;;;10.43;4.70;;;4.50;77.20;;;;;;5009585;28;20037;-76
2021/01/14 09:14:06;;;;;;;14.30;5.00;;;4.50;77.10;;;;;;5009567;28;20030;-76
2021/01/14 09:16:33;;;;;;;21.50;6.67;;;4.50;77.10;;;;;;5009551;28;20026;-76
2021/01/14 09:18:58;;;;;;;22.87;8.30;;;4.70;76.80;;;;;;5009433;28;20023;-76
2021/01/14 09:21:24;;;;;;;18.73;8.17;;;4.70;76.60;;;;;;4992421;28;20590;-76
2021/01/14 09:23:50;;;;;;;19.80;8.57;;;4.70;76.30;;;;;;4994487;28;20117;-76
2021/01/14 09:26:22;;;;;;;23.47;8.43;;;4.70;76.40;;;;;;4994316;28;20105;-76
2021/01/14 09:28:52;;;;;;;18.80;9.00;;;4.60;76.10;;;;;;4992936;28;20027;-76
2021/01/14 09:31:18;;;;;;;18.30;8.10;;;4.50;76.90;;;;;;4997432;28;20038;-76
2021/01/14 09:33:45;;;;;;;16.70;6.30;;;4.60;77.00;;;;;;4989507;28;20101;-75
2021/01/14 09:36:18;;;;;;;14.27;5.03;;;4.80;76.30;;;;;;4973688;28;20023;-75
2021/01/14 09:38:51;;;;;;;14.43;3.97;;;4.80;75.90;;;;;;4963922;28;20027;-75
2021/01/14 09:41:32;;;;;;;13.00;4.23;;;4.80;76.00;;;;;;4994268;28;20022;-75
2021/01/14 09:43:59;;;;;;;13.57;4.70;;;4.70;76.30;;;;;;4994148;28;20041;-75
2021/01/14 09:46:32;;;;;;;13.23;3.33;;;4.70;76.40;;;;;;4993126;28;20472;-75
2021/01/14 09:49:05;;;;;;;10.47;3.87;;;4.70;76.60;;;;;;4977099;28;20037;-74
2021/01/14 09:51:31;;;;;;;13.20;6.00;;;4.70;76.80;;;;;;4977472;28;20038;-74
2021/01/14 09:53:57;;;;;;;12.90;4.70;;;4.70;76.60;;;;;;4973480;28;20023;-74
2021/01/14 09:56:32;;;;;;;15.50;4.40;;;4.80;76.70;;;;;;4973641;28;20034;-75
2021/01/14 09:59:02;;;;;;;14.77;4.43;;;4.80;75.90;;;;;;4973775;28;20019;-75
2021/01/14 10:01:41;;;;;;;20.63;5.90;;;4.80;76.10;;;;;;4977564;28;20018;-76
2021/01/14 10:04:11;;;;;;;13.00;4.60;;;4.70;76.50;;;;;;4976722;28;20041;-75
2021/01/14 10:06:55;;;;;;;17.38;5.10;;;4.70;76.60;;;;;;4977336;28;20022;-75
2021/01/14 10:09:21;;;;;;;11.07;4.87;;;4.60;76.80;;;;;;4993378;28;20027;-75
2021/01/14 10:11:46;;;;;;;15.40;4.80;;;4.70;77.10;;;;;;4993136;28;20038;-74
2021/01/14 10:14:19;;;;;;;19.73;5.60;;;4.70;76.90;;;;;;4976556;28;20035;-75
2021/01/14 10:16:44;;;;;;;13.37;5.37;;;4.70;77.20;;;;;;4992607;28;20027;-75
2021/01/14 10:19:11;;;;;;;17.97;6.20;;;4.80;76.20;;;;;;4993968;28;20038;-75
2021/01/14 10:21:38;;;;;;;16.20;7.00;;;4.90;76.00;;;;;;4992704;28;20034;-75
2021/01/14 10:24:05;;;;;;;13.80;5.73;;;4.90;76.10;;;;;;4992830;28;20036;-75
2021/01/14 10:26:31;;;;;;;11.20;5.80;;;5.00;76.30;;;;;;4992714;28;20069;-75
2021/01/14 10:28:57;;;;;;;20.97;6.53;;;5.10;76.00;;;;;;4993928;28;20451;-76
2021/01/14 10:31:36;;;;;;;14.97;6.30;;;5.10;75.90;;;;;;4978199;28;20105;-75
2021/01/14 10:34:03;;;;;;;17.17;6.67;;;5.30;75.60;;;;;;4977048;28;20029;-75
2021/01/14 10:36:48;;;;;;;15.80;6.00;;;5.30;75.40;;;;;;4976323;28;20035;-76
2021/01/14 10:39:14;;;;;;;21.57;5.50;;;5.40;75.50;;;;;;4976777;28;20015;-75
2021/01/14 10:41:40;;;;;;;16.20;5.00;;;5.40;75.40;;;;;;4976370;28;20023;-76
2021/01/14 10:44:07;;;;;;;11.83;4.60;;;5.30;75.40;;;;;;4977499;28;20034;-76
2021/01/14 10:46:32;;;;;;;16.10;5.93;;;5.30;75.70;;;;;;4977782;28;20019;-75
2021/01/14 10:49:13;;;;;;;11.60;4.17;;;5.20;75.70;;;;;;4976379;28;20026;-75
2021/01/14 10:51:40;;;;;;;16.80;4.50;;;5.20;75.60;;;;;;4977664;28;20027;-75
2021/01/14 10:54:06;;;;;;;12.07;4.13;;;5.10;76.50;;;;;;4976061;28;20432;-75
2021/01/14 10:56:32;;;;;;;15.07;4.10;;;5.20;76.70;;;;;;4977626;28;20031;-76
2021/01/14 10:58:59;;;;;;;11.20;4.33;;;5.30;76.40;;;;;;4977727;28;20108;-75
2021/01/14 11:01:24;;;;;;;14.10;4.83;;;5.50;75.50;;;;;;4976264;28;20027;-75
2021/01/14 11:03:53;;;;;;;16.47;4.63;;;5.60;75.10;;;;;;4977449;28;20034;-75
2021/01/14 11:06:32;;;;;;;12.37;4.10;;;5.60;74.70;;;;;;4977380;28;20030;-75
2021/01/14 11:09:02;;;;;;;10.67;3.57;;;5.60;75.10;;;;;;4977332;28;20476;-75
2021/01/14 11:11:28;;;;;;;11.40;4.13;;;5.60;74.40;;;;;;4977467;28;20062;-75
2021/01/14 11:13:54;;;;;;;10.10;3.90;;;5.80;74.00;;;;;;4990929;28;20058;-75
2021/01/14 11:16:21;;;;;;;12.17;3.87;;;5.90;73.90;;;;;;4996794;28;20030;-75
2021/01/14 11:18:50;;;;;;;14.83;4.40;;;5.80;74.10;;;;;;4996571;28;20053;-75
2021/01/14 11:21:25;;;;;;;13.20;4.30;;;5.90;73.80;;;;;;4995374;28;20447;-76
2021/01/14 11:23:51;;;;;;;16.10;3.80;;;6.10;74.50;;;;;;4996380;28;20540;-75
2021/01/14 11:26:19;;;;;;;10.23;3.83;;;6.20;73.40;;;;;;4991403;28;20110;-75
2021/01/14 11:28:45;;;;;;;12.83;3.80;;;6.30;73.20;;;;;;4977030;28;20093;-75
2021/01/14 11:31:12;;;;;;;13.43;3.73;;;6.20;72.40;;;;;;4975693;28;20030;-75
2021/01/14 11:33:38;;;;;;;14.23;3.80;;;6.10;72.80;;;;;;4975749;28;20034;-76
2021/01/14 11:36:06;;;;;;;15.73;4.03;;;6.00;73.70;;;;;;4976603;28;20035;-75
2021/01/14 11:38:32;;;;;;;13.73;4.00;;;5.90;73.60;;;;;;4975741;28;20023;-75
2021/01/14 11:40:57;;;;;;;14.87;4.00;;;5.90;74.20;;;;;;4975604;28;20033;-75
2021/01/14 11:43:23;;;;;;;16.67;4.17;;;5.90;74.00;;;;;;4978221;28;20123;-75
2021/01/14 11:45:48;;;;;;;18.53;4.43;;;5.90;73.70;;;;;;4995689;28;20080;-77
2021/01/14 11:48:14;;;;;;;16.73;4.73;;;5.80;73.50;;;;;;4995510;28;20030;-77
2021/01/14 11:50:40;;;;;;;14.80;3.90;;;5.80;74.60;;;;;;4994911;28;20490;-75
2021/01/14 11:53:06;;;;;;;18.20;5.07;;;5.80;73.90;;;;;;4994756;28;20026;-75
2021/01/14 11:55:31;;;;;;;13.83;4.27;;;5.90;74.00;;;;;;4994710;28;20022;-75
2021/01/14 11:57:57;;;;;;;16.33;3.87;;;6.00;73.80;;;;;;4995923;28;20038;-75
2021/01/14 12:00:23;;;;;;;13.33;3.90;;;5.90;73.20;;;;;;4992530;28;20026;-75
2021/01/14 12:02:48;;;;;;;17.80;3.67;;;5.90;72.60;;;;;;4994248;28;20023;-75
2021/01/14 12:05:14;;;;;;;14.57;4.50;;;5.70;72.90;;;;;;5010768;28;20030;-75
2021/01/14 12:07:39;;;;;;;12.83;4.23;;;5.70;73.30;;;;;;4994391;28;20395;-75
2021/01/14 12:10:06;;;;;;;19.00;5.33;;;5.70;73.10;;;;;;4995792;28;20034;-75
2021/01/14 12:12:32;;;;;;;16.43;4.83;;;5.60;73.10;;;;;;4995423;28;20034;-75
2021/01/14 12:14:58;;;;;;;23.53;5.87;;;5.60;73.60;;;;;;4994288;28;20034;-75
2021/01/14 12:17:24;;;;;;;16.97;4.40;;;5.60;74.10;;;;;;4978008;28;20026;-75
2021/01/14 12:19:49;;;;;;;19.10;4.73;;;5.50;74.10;;;;;;4993696;28;20045;-75
2021/01/14 12:22:15;;;;;;;10.63;3.90;;;5.50;74.10;;;;;;4995287;28;20064;-76
2021/01/14 12:24:40;;;;;;;17.23;4.93;;;5.50;73.50;;;;;;4995311;28;20062;-75
2021/01/14 12:27:06;;;;;;;17.27;4.87;;;5.40;74.80;;;;;;4994069;28;20038;-75
2021/01/14 12:29:32;;;;;;;19.03;4.70;;;5.60;74.30;;;;;;4995214;28;20180;-75
2021/01/14 12:31:57;;;;;;;18.73;4.63;;;5.70;74.20;;;;;;4995054;28;20555;-75
2021/01/14 12:34:23;;;;;;;21.50;4.77;;;5.80;73.20;;;;;;4975821;28;20042;-75
2021/01/14 12:36:49;;;;;;;15.83;4.43;;;6.00;72.80;;;;;;4974619;28;20110;-75
2021/01/14 12:39:14;;;;;;;16.27;4.93;;;5.80;72.20;;;;;;4958326;28;20041;-75
2021/01/14 12:41:40;;;;;;;15.43;3.87;;;5.80;73.20;;;;;;4974773;28;20031;-75
2021/01/14 12:44:06;;;;;;;16.83;4.57;;;5.80;73.30;;;;;;4974301;28;20035;-75
2021/01/14 12:46:36;;;;;;;16.60;4.47;;;5.80;73.30;;;;;;4975537;28;20059;-75
2021/01/14 12:49:01;;;;;;;14.83;4.57;;;5.90;72.80;;;;;;4958048;28;20031;-75
2021/01/14 12:51:27;;;;;;;15.30;4.60;;;5.80;72.70;;;;;;4975963;28;20082;-75
2021/01/14 12:53:52;;;;;;;11.40;4.10;;;5.80;72.10;;;;;;4975479;28;20030;-75